Time;durP1;ratioP1;P1;durP2;ratioP2;P2;SDS_P1;SDS_P2;PMS_P1;PMS_P2;Temp;Humidity;BMP_temperature;BMP_pressure;BME280_temperature;BME280_humidity;BME280_pressure;Samples;Min_cycle;Max_cycle;Signal;HPM_P1;HPM_P2
2023/06/04 00:01:15;;;;;;;5.77;2.20;;;;;;;10.72;48.26;100903.59;4230572;28;21963;-73
2023/06/04 00:03:43;;;;;;;4.93;2.13;;;;;;;10.71;48.59;100893.75;4235559;28;26851;-71
2023/06/04 00:06:09;;;;;;;5.17;2.07;;;;;;;10.77;48.36;100892.34;4234869;28;21120;-72
2023/06/04 00:08:36;;;;;;;5.07;2.13;;;;;;;10.94;47.62;100891.69;4243801;28;25481;-71
2023/06/04 00:11:03;;;;;;;6.80;2.13;;;;;;;10.88;47.68;100896.78;4236059;28;20238;-72
2023/06/04 00:13:29;;;;;;;5.70;1.90;;;;;;;10.80;48.25;100900.16;4236486;28;22024;-73
2023/06/04 00:15:56;;;;;;;5.77;2.10;;;;;;;10.79;47.92;100887.66;4225596;28;22115;-70
2023/06/04 00:18:23;;;;;;;5.63;2.27;;;;;;;10.84;47.77;100892.66;4245690;28;20242;-71
2023/06/04 00:20:49;;;;;;;8.67;2.03;;;;;;;10.77;48.45;100885.06;4232363;28;20566;-73
2023/06/04 00:23:16;;;;;;;6.33;2.20;;;;;;;10.72;48.57;100898.16;4233974;28;20233;-75
2023/06/04 00:25:42;;;;;;;7.00;2.20;;;;;;;10.53;48.90;100892.69;4241334;28;20364;-69
2023/06/04 00:28:09;;;;;;;7.80;1.83;;;;;;;10.53;49.17;100895.38;4241114;28;20285;-72
2023/06/04 00:30:35;;;;;;;5.63;2.07;;;;;;;10.50;48.67;100887.53;4243776;28;20231;-72
2023/06/04 00:33:03;;;;;;;7.87;1.70;;;;;;;10.65;47.77;100890.75;4239901;28;21484;-70
2023/06/04 00:35:29;;;;;;;3.40;1.50;;;;;;;10.68;48.01;100888.63;4244545;28;20377;-73
2023/06/04 00:37:56;;;;;;;4.20;1.70;;;;;;;10.67;48.02;100886.91;4249889;28;20288;-69
2023/06/04 00:40:23;;;;;;;4.50;1.97;;;;;;;10.70;47.50;100892.03;4251476;28;20261;-69
2023/06/04 00:42:49;;;;;;;5.10;1.63;;;;;;;10.73;47.60;100891.75;4232749;28;20336;-70
2023/06/04 00:45:18;;;;;;;6.57;2.20;;;;;;;10.72;47.86;100890.03;4240861;28;21596;-72
2023/06/04 00:47:45;;;;;;;8.43;1.80;;;;;;;10.72;47.78;100884.63;4232885;28;20230;-71
2023/06/04 00:50:12;;;;;;;3.80;1.80;;;;;;;10.81;47.20;100885.63;4265174;28;22284;-72
2023/06/04 00:52:38;;;;;;;7.33;1.70;;;;;;;10.85;46.95;100888.94;4242088;28;20672;-71
2023/06/04 00:55:05;;;;;;;5.27;1.90;;;;;;;10.94;46.65;100888.09;4228325;28;21124;-72
2023/06/04 00:57:32;;;;;;;6.67;1.90;;;;;;;10.95;47.16;100889.81;4248934;28;20229;-71
2023/06/04 00:59:58;;;;;;;4.97;2.77;;;;;;;10.89;46.55;100887.66;4238436;28;20288;-71
2023/06/04 01:02:25;;;;;;;6.90;2.30;;;;;;;10.71;46.96;100884.78;4232498;28;25062;-71
2023/06/04 01:05:28;;;;;;;5.70;1.93;;;;;;;10.84;45.85;100884.53;4238161;28;20461;-72
2023/06/04 01:07:57;;;;;;;4.80;1.80;;;;;;;10.85;45.66;100883.50;4238958;28;20341;-72
2023/06/04 01:10:24;;;;;;;5.17;2.00;;;;;;;10.96;44.63;100893.38;4249890;28;21141;-70
2023/06/04 01:12:50;;;;;;;3.13;1.97;;;;;;;10.93;45.02;100887.25;4242594;28;20428;-72
2023/06/04 01:15:17;;;;;;;11.23;2.23;;;;;;;10.97;44.45;100893.25;4248711;28;20630;-71
2023/06/04 01:17:51;;;;;;;4.03;1.70;;;;;;;10.98;44.15;100877.84;4251407;28;25074;-71
2023/06/04 01:20:25;;;;;;;9.47;2.20;;;;;;;11.06;44.25;100891.56;4245491;28;20363;-71
2023/06/04 01:22:54;;;;;;;5.70;1.80;;;;;;;11.06;44.08;100884.31;4243022;28;25111;-71
2023/06/04 01:25:25;;;;;;;3.77;1.63;;;;;;;11.05;44.29;100889.84;4247629;28;20945;-72
2023/06/04 01:27:55;;;;;;;3.53;1.90;;;;;;;11.01;44.45;100886.56;4247116;28;22865;-70
2023/06/04 01:30:25;;;;;;;4.47;1.83;;;;;;;10.99;44.75;100884.97;4237449;28;21847;-71
2023/06/04 01:32:55;;;;;;;3.80;1.73;;;;;;;10.84;45.76;100879.97;4242998;28;20222;-72
2023/06/04 01:35:22;;;;;;;4.97;2.00;;;;;;;10.83;46.00;100888.22;4247900;28;22196;-71
2023/06/04 01:37:51;;;;;;;4.97;1.90;;;;;;;10.78;46.00;100881.34;4248579;28;20238;-71
2023/06/04 01:40:18;;;;;;;7.23;1.80;;;;;;;10.78;45.84;100883.22;4244328;28;20234;-73
2023/06/04 01:42:45;;;;;;;5.13;1.90;;;;;;;10.77;45.92;100882.34;4243131;28;20230;-73
2023/06/04 01:45:11;;;;;;;8.33;1.80;;;;;;;10.75;46.32;100881.66;4241001;28;21573;-74
2023/06/04 01:47:38;;;;;;;7.93;1.73;;;;;;;10.74;46.23;100887.19;4238047;28;20234;-71
2023/06/04 01:50:09;;;;;;;4.00;1.50;;;;;;;10.73;46.75;100875.50;4241218;28;20237;-73
2023/06/04 01:52:39;;;;;;;5.17;1.70;;;;;;;10.71;46.90;100882.91;4234527;28;21752;-72
2023/06/04 01:55:08;;;;;;;11.93;2.07;;;;;;;10.65;47.39;100878.03;4236985;28;20304;-71
2023/06/04 01:57:44;;;;;;;5.50;1.80;;;;;;;10.61;47.68;100887.44;4236430;28;20300;-73
2023/06/04 02:00:11;;;;;;;5.27;1.90;;;;;;;10.59;47.89;100884.84;4234919;28;20559;-73
2023/06/04 02:02:41;;;;;;;8.43;2.00;;;;;;;10.59;47.79;100874.03;4232426;28;21185;-72
2023/06/04 02:05:09;;;;;;;3.83;1.50;;;;;;;10.60;47.88;100873.03;4233334;28;21737;-71
2023/06/04 02:07:38;;;;;;;5.90;2.00;;;;;;;10.56;48.49;100877.03;4256001;28;23127;-71
2023/06/04 02:10:08;;;;;;;7.20;1.80;;;;;;;10.49;48.64;100875.84;4242989;28;20234;-71
2023/06/04 02:12:39;;;;;;;5.37;1.57;;;;;;;10.49;48.80;100869.56;4227208;28;20532;-73
2023/06/04 02:15:07;;;;;;;8.27;2.10;;;;;;;10.44;48.53;100869.97;4232793;28;20377;-73
2023/06/04 02:17:37;;;;;;;7.40;1.80;;;;;;;10.40;48.76;100872.09;4218272;28;20595;-72
2023/06/04 02:20:05;;;;;;;6.83;1.73;;;;;;;10.54;48.12;100875.44;4249601;28;20243;-71
2023/06/04 02:22:32;;;;;;;4.10;1.63;;;;;;;10.59;47.82;100870.47;4243638;28;20246;-72
2023/06/04 02:24:58;;;;;;;4.20;1.43;;;;;;;10.61;48.09;100868.50;4236648;28;20293;-72
2023/06/04 02:27:25;;;;;;;6.10;1.70;;;;;;;10.60;47.90;100870.34;4239762;28;21059;-71
2023/06/04 02:29:51;;;;;;;7.73;1.30;;;;;;;10.66;47.44;100874.34;4239650;28;20404;-72
2023/06/04 02:32:18;;;;;;;4.80;1.60;;;;;;;10.76;46.93;100869.81;4241730;28;20355;-73
2023/06/04 02:34:44;;;;;;;4.97;1.43;;;;;;;10.77;46.93;100865.25;4240652;28;22109;-72
2023/06/04 02:37:11;;;;;;;5.57;1.30;;;;;;;10.81;46.69;100872.09;4247195;28;20336;-71
2023/06/04 02:39:37;;;;;;;7.83;1.40;;;;;;;10.80;46.44;100869.53;4239026;28;20352;-72
2023/06/04 02:42:05;;;;;;;4.70;1.57;;;;;;;10.84;46.59;100877.25;4246774;28;20230;-71
2023/06/04 02:44:32;;;;;;;4.13;1.77;;;;;;;10.81;46.28;100872.09;4234890;28;20239;-71
2023/06/04 02:46:59;;;;;;;4.30;1.50;;;;;;;10.82;46.48;100872.97;4260427;28;20444;-71
2023/06/04 02:49:25;;;;;;;6.60;1.67;;;;;;;10.83;46.41;100874.69;4252681;28;20771;-72
2023/06/04 02:51:52;;;;;;;5.87;1.80;;;;;;;10.79;47.01;100874.09;4234832;28;21862;-73
2023/06/04 02:54:18;;;;;;;5.57;1.50;;;;;;;10.77;47.89;100876.09;4244519;28;21434;-70
2023/06/04 02:56:45;;;;;;;5.03;1.60;;;;;;;10.71;47.37;100879.34;4238448;28;20609;-72
2023/06/04 02:59:13;;;;;;;13.50;1.60;;;;;;;10.68;48.05;100874.19;4250858;28;20250;-73
2023/06/04 03:01:40;;;;;;;5.20;1.67;;;;;;;10.68;48.34;100866.06;4237715;28;24712;-73
2023/06/04 03:04:09;;;;;;;6.90;1.77;;;;;;;10.70;47.25;100869.50;4230413;28;20230;-70
2023/06/04 03:06:44;;;;;;;3.83;1.50;;;;;;;10.66;48.82;100866.22;4257743;28;22831;-71
2023/06/04 03:09:11;;;;;;;2.87;1.20;;;;;;;10.71;48.53;100877.50;4262440;28;20319;-71
2023/06/04 03:11:38;;;;;;;3.00;1.60;;;;;;;10.76;48.18;100869.81;4232901;28;20227;-72
2023/06/04 03:14:05;;;;;;;5.60;1.93;;;;;;;10.79;50.57;100871.41;4241933;28;20700;-72
2023/06/04 03:16:31;;;;;;;5.47;1.20;;;;;;;10.83;48.58;100872.81;4256920;28;20292;-71
2023/06/04 03:18:58;;;;;;;5.77;1.47;;;;;;;10.82;48.88;100873.81;4251388;28;20317;-70
2023/06/04 03:21:24;;;;;;;4.67;1.70;;;;;;;10.68;48.45;100869.66;4240955;28;20238;-72
2023/06/04 03:23:51;;;;;;;3.67;1.60;;;;;;;10.54;49.97;100870.88;4223729;28;20239;-73
2023/06/04 03:26:18;;;;;;;3.40;1.43;;;;;;;10.56;48.91;100874.31;4232434;28;20293;-70
2023/06/04 03:28:44;;;;;;;4.77;1.43;;;;;;;10.70;48.45;100874.94;4238484;28;20230;-72
2023/06/04 03:31:12;;;;;;;3.43;1.60;;;;;;;10.78;48.23;100872.38;4243753;28;20226;-73
2023/06/04 03:33:39;;;;;;;3.57;1.50;;;;;;;10.90;48.21;100871.28;4238990;28;21988;-72
2023/06/04 03:36:05;;;;;;;6.17;1.80;;;;;;;10.81;49.83;100880.22;4246125;28;21233;-73
2023/06/04 03:38:32;;;;;;;6.47;1.40;;;;;;;10.74;49.71;100874.53;4255478;28;20238;-70
2023/06/04 03:40:58;;;;;;;7.27;1.60;;;;;;;10.62;49.17;100881.88;4243073;28;21723;-72
2023/06/04 03:43:25;;;;;;;7.17;1.60;;;;;;;10.59;49.98;100873.19;4245779;28;20653;-72
2023/06/04 03:45:52;;;;;;;5.30;1.67;;;;;;;10.68;49.42;100874.19;4243297;28;22219;-73
2023/06/04 03:48:18;;;;;;;4.07;1.70;;;;;;;10.80;48.72;100883.06;4253663;28;20285;-70
2023/06/04 03:50:45;;;;;;;3.97;1.73;;;;;;;10.82;48.71;100883.81;4234279;28;20242;-72
2023/06/04 03:53:12;;;;;;;5.13;1.60;;;;;;;10.88;48.79;100889.50;4239786;28;20296;-70
2023/06/04 03:55:39;;;;;;;7.40;1.50;;;;;;;10.96;48.55;100885.25;4236685;28;25423;-71
2023/06/04 03:58:09;;;;;;;3.53;1.43;;;;;;;11.01;48.47;100883.00;4244609;28;20231;-73
2023/06/04 04:00:36;;;;;;;4.87;1.60;;;;;;;10.98;48.90;100884.13;4242707;28;20631;-74
2023/06/04 04:03:02;;;;;;;6.33;1.53;;;;;;;10.99;48.58;100888.53;4238768;28;21540;-72
2023/06/04 04:05:31;;;;;;;8.03;1.57;;;;;;;11.07;48.90;100880.56;4241668;28;20234;-71
2023/06/04 04:07:57;;;;;;;6.90;1.87;;;;;;;11.15;48.97;100890.72;4237778;28;20235;-70
2023/06/04 04:10:24;;;;;;;2.93;1.60;;;;;;;11.14;48.94;100891.72;4235249;28;20278;-72
2023/06/04 04:12:51;;;;;;;4.30;1.70;;;;;;;11.12;49.04;100888.28;4240816;28;20238;-71
2023/06/04 04:15:18;;;;;;;6.73;1.67;;;;;;;11.19;48.36;100881.31;4243852;28;20292;-70
2023/06/04 04:17:44;;;;;;;5.43;1.87;;;;;;;11.24;48.71;100891.72;4238964;28;20311;-71
2023/06/04 04:20:11;;;;;;;6.60;2.13;;;;;;;11.30;48.88;100883.03;4242339;28;24923;-70
2023/06/04 04:22:41;;;;;;;4.80;1.60;;;;;;;11.35;49.37;100885.31;4232404;28;20231;-71
2023/06/04 04:25:09;;;;;;;3.53;1.70;;;;;;;11.44;48.40;100887.19;4233624;28;21136;-71
2023/06/04 04:27:38;;;;;;;3.43;1.37;;;;;;;11.34;48.65;100879.06;4243481;28;20525;-70
2023/06/04 04:30:06;;;;;;;5.47;1.90;;;;;;;11.48;48.81;100887.75;4234647;28;20655;-69
2023/06/04 04:32:33;;;;;;;3.30;1.67;;;;;;;11.50;48.49;100869.50;4246968;28;20233;-71
2023/06/04 04:35:00;;;;;;;3.80;1.60;;;;;;;11.56;48.56;100877.06;4240675;28;20693;-71
2023/06/04 04:37:26;;;;;;;4.13;1.60;;;;;;;11.67;47.48;100879.59;4244803;28;20238;-70
2023/06/04 04:39:53;;;;;;;5.30;1.70;;;;;;;11.74;46.82;100872.59;4237419;28;20243;-75
2023/06/04 04:42:20;;;;;;;6.77;1.60;;;;;;;11.87;46.80;100877.72;4232914;28;20293;-73
2023/06/04 04:44:48;;;;;;;4.83;2.60;;;;;;;12.08;46.54;100875.88;4243860;28;20252;-70
2023/06/04 04:47:17;;;;;;;9.07;1.73;;;;;;;12.16;46.36;100873.28;4219108;28;21251;-71
2023/06/04 04:49:44;;;;;;;3.80;1.80;;;;;;;12.27;45.80;100878.56;4224354;28;20346;-70
2023/06/04 04:52:14;;;;;;;5.27;1.90;;;;;;;12.41;45.78;100870.94;4252508;28;20230;-72
2023/06/04 04:54:40;;;;;;;3.40;1.70;;;;;;;12.50;45.91;100873.59;4238409;28;21782;-74
2023/06/04 04:57:07;;;;;;;8.90;1.73;;;;;;;12.49;45.38;100879.19;4235872;28;20284;-71
2023/06/04 04:59:39;;;;;;;3.70;1.80;;;;;;;12.57;45.13;100876.59;4241563;28;20239;-69
2023/06/04 05:02:06;;;;;;;6.03;1.57;;;;;;;12.79;45.57;100869.88;4249683;28;20331;-73
2023/06/04 05:04:33;;;;;;;7.27;1.57;;;;;;;12.87;44.66;100873.69;4243727;28;20245;-72
2023/06/04 05:06:59;;;;;;;5.10;1.83;;;;;;;12.92;44.76;100877.69;4250355;28;20313;-69
2023/06/04 05:09:26;;;;;;;3.77;1.40;;;;;;;13.12;43.67;100875.69;4247123;28;22107;-71
2023/06/04 05:11:53;;;;;;;2.93;1.50;;;;;;;13.14;43.70;100872.81;4249632;28;20301;-73
2023/06/04 05:14:19;;;;;;;2.50;1.40;;;;;;;13.32;43.25;100883.69;4239681;28;20423;-74
2023/06/04 05:16:48;;;;;;;3.37;1.60;;;;;;;13.44;42.74;100873.50;4241589;28;20245;-70
2023/06/04 05:19:18;;;;;;;3.67;1.63;;;;;;;13.68;42.20;100870.13;4227846;28;20305;-70
2023/06/04 05:21:44;;;;;;;5.53;1.73;;;;;;;13.77;42.28;100862.91;4241404;28;21787;-71
2023/06/04 05:24:11;;;;;;;4.30;1.77;;;;;;;14.12;41.62;100868.44;4255210;28;20239;-72
2023/06/04 05:26:39;;;;;;;5.00;1.60;;;;;;;14.44;41.35;100875.94;4238379;28;21310;-74
2023/06/04 05:29:06;;;;;;;5.87;1.57;;;;;;;14.89;40.30;100877.53;4240514;28;20234;-70
2023/06/04 05:31:33;;;;;;;2.60;1.40;;;;;;;15.63;39.13;100875.94;4247653;28;20238;-72
2023/06/04 05:34:06;;;;;;;3.43;1.40;;;;;;;16.13;38.00;100868.63;4250064;28;22907;-69
2023/06/04 05:36:33;;;;;;;3.97;1.50;;;;;;;16.74;36.83;100868.94;4261845;28;20292;-69
2023/06/04 05:38:59;;;;;;;6.57;1.50;;;;;;;17.50;35.54;100870.22;4243838;28;20567;-69
2023/06/04 05:41:27;;;;;;;2.60;1.30;;;;;;;17.96;34.72;100870.22;4244931;28;20265;-69
2023/06/04 05:43:54;;;;;;;5.50;1.40;;;;;;;18.76;33.19;100870.56;4238770;28;20235;-69
2023/06/04 05:46:21;;;;;;;2.90;1.30;;;;;;;18.78;32.56;100875.84;4235773;28;20238;-70
2023/06/04 05:48:48;;;;;;;4.83;1.37;;;;;;;19.70;31.29;100874.38;4259691;28;20272;-69
2023/06/04 05:51:15;;;;;;;3.13;1.03;;;;;;;19.59;31.35;100872.16;4270340;28;25004;-69
2023/06/04 05:53:42;;;;;;;2.87;1.33;;;;;;;19.88;30.99;100865.69;4258889;28;21447;-69
2023/06/04 05:56:08;;;;;;;4.30;1.37;;;;;;;20.96;28.91;100869.13;4237640;28;20298;-69
2023/06/04 05:58:35;;;;;;;1.87;1.03;;;;;;;22.10;27.49;100870.16;4243724;28;20437;-71
2023/06/04 06:01:02;;;;;;;1.90;1.17;;;;;;;22.41;27.46;100868.66;4248534;28;20277;-70
2023/06/04 06:03:29;;;;;;;2.60;1.10;;;;;;;23.27;26.05;100872.16;4238742;28;20235;-69
2023/06/04 06:05:58;;;;;;;3.50;0.93;;;;;;;23.92;25.06;100872.16;4244164;28;22093;-70
2023/06/04 06:08:25;;;;;;;5.20;1.00;;;;;;;24.24;24.98;100878.47;4252303;28;21365;-69
2023/06/04 06:10:52;;;;;;;3.72;0.90;;;;;;;24.91;24.24;100875.00;4228952;28;20549;-72
2023/06/04 06:13:18;;;;;;;3.05;1.35;;;;;;;24.74;24.22;100871.16;4243491;28;20843;-71
2023/06/04 06:15:48;;;;;;;2.63;1.40;;;;;;;25.11;23.54;100876.69;4237664;28;20231;-70
2023/06/04 06:18:15;;;;;;;3.15;1.20;;;;;;;26.04;23.04;100881.88;4239350;28;22285;-69
2023/06/04 06:20:42;;;;;;;3.08;1.33;;;;;;;25.67;23.19;100887.63;4248453;28;20235;-70
2023/06/04 06:23:09;;;;;;;2.10;1.23;;;;;;;26.02;22.68;100881.31;4236605;28;20670;-71
2023/06/04 06:25:36;;;;;;;4.05;1.13;;;;;;;25.47;23.26;100884.06;4236379;28;21748;-72
2023/06/04 06:28:02;;;;;;;4.00;1.42;;;;;;;26.14;23.12;100882.19;4239133;28;20237;-74
2023/06/04 06:30:29;;;;;;;5.25;1.15;;;;;;;25.86;22.50;100885.59;4239018;28;20234;-74
2023/06/04 06:32:56;;;;;;;4.60;1.15;;;;;;;26.32;22.40;100889.53;4240621;28;20250;-72
2023/06/04 06:35:23;;;;;;;3.53;1.45;;;;;;;26.73;22.43;100882.13;4239510;28;20322;-72
2023/06/04 06:37:50;;;;;;;3.83;1.15;;;;;;;26.57;21.91;100889.28;4235789;28;20231;-73
2023/06/04 06:40:16;;;;;;;7.32;1.88;;;;;;;26.99;21.53;100893.81;4243706;28;20239;-73
2023/06/04 06:42:48;;;;;;;2.97;1.20;;;;;;;27.48;21.03;100898.13;4233304;28;20265;-74
2023/06/04 06:45:15;;;;;;;2.92;1.10;;;;;;;26.93;21.29;100894.78;4230947;28;20239;-75
2023/06/04 06:47:45;;;;;;;4.35;0.98;;;;;;;28.14;20.32;100897.59;4258421;28;21106;-73
2023/06/04 06:50:11;;;;;;;7.03;1.25;;;;;;;28.44;20.23;100901.97;4248459;28;20246;-68
2023/06/04 06:52:38;;;;;;;4.88;1.33;;;;;;;28.37;19.73;100901.28;4224497;28;23136;-72
2023/06/04 06:55:05;;;;;;;3.10;1.02;;;;;;;27.22;19.76;100894.81;4248535;28;20234;-75
2023/06/04 06:57:33;;;;;;;3.53;0.90;;;;;;;26.10;21.86;100892.91;4238645;28;20231;-66
2023/06/04 07:00:00;;;;;;;3.50;0.95;;;;;;;27.27;20.64;100905.19;4258945;28;20424;-44
2023/06/04 07:02:27;;;;;;;3.00;1.13;;;;;;;27.74;20.16;100899.44;4249844;28;22542;-66
2023/06/04 07:04:53;;;;;;;3.38;0.90;;;;;;;27.67;19.94;100901.53;4245692;28;20487;-65
2023/06/04 07:16:07;;;;;;;3.13;0.88;;;;;;;28.16;19.53;100903.78;4313957;27;24500;-68
2023/06/04 07:18:34;;;;;;;3.60;1.15;;;;;;;26.72;20.47;100901.81;4288580;27;20295;-67
2023/06/04 07:21:01;;;;;;;2.10;0.90;;;;;;;26.88;20.67;100906.63;4294218;27;20572;-63
2023/06/04 07:23:27;;;;;;;6.97;1.00;;;;;;;26.73;20.74;100906.28;4279972;27;21029;-65
2023/06/04 07:25:54;;;;;;;2.90;0.95;;;;;;;25.87;21.53;100904.78;4283215;27;21593;-70
2023/06/04 07:28:21;;;;;;;3.35;1.17;;;;;;;24.78;22.82;100900.09;4293799;27;20229;-66
2023/06/04 07:30:47;;;;;;;3.92;0.98;;;;;;;24.46;23.39;100901.03;4281157;27;20228;-65
2023/06/04 07:33:14;;;;;;;4.37;1.17;;;;;;;23.95;23.60;100896.59;4276828;27;21736;-67
2023/06/04 07:35:41;;;;;;;5.27;1.13;;;;;;;23.43;23.88;100900.34;4285284;27;20450;-66
2023/06/04 07:38:07;;;;;;;1.85;0.90;;;;;;;24.11;23.10;100895.22;4292524;27;22923;-69
2023/06/04 07:40:34;;;;;;;2.03;0.90;;;;;;;23.38;23.60;100909.28;4279138;27;25026;-66
2023/06/04 07:43:01;;;;;;;4.17;1.07;;;;;;;23.38;25.24;100916.75;4284008;27;22036;-73
2023/06/04 07:45:29;;;;;;;4.97;0.83;;;;;;;23.78;23.30;100908.22;4293626;27;20237;-74
2023/06/04 07:56:55;;;;;;;4.20;0.90;;;;;;;22.67;24.47;100888.97;4299424;27;21153;-65
2023/06/04 07:59:23;;;;;;;1.10;0.80;;;;;;;22.24;24.34;100897.75;4282889;28;20229;-68
2023/06/04 08:01:51;;;;;;;2.73;1.00;;;;;;;22.14;25.03;100906.41;4287896;28;21242;-70
2023/06/04 08:04:18;;;;;;;5.97;1.27;;;;;;;21.71;25.53;100904.06;4298864;28;20232;-69
2023/06/04 08:06:46;;;;;;;3.33;1.33;;;;;;;22.23;24.89;100905.16;4280038;28;20264;-68
2023/06/04 08:09:13;;;;;;;2.40;0.90;;;;;;;22.34;25.03;100900.06;4269209;28;20238;-70
2023/06/04 08:11:41;;;;;;;3.33;0.87;;;;;;;22.84;25.08;100905.06;4239286;28;20233;-68
2023/06/04 08:14:08;;;;;;;4.47;0.93;;;;;;;23.39;23.73;100904.63;4272899;28;23201;-69
2023/06/04 08:16:34;;;;;;;2.67;0.93;;;;;;;23.55;23.27;100906.88;4253584;28;23411;-69
2023/06/04 08:19:01;;;;;;;3.00;0.90;;;;;;;22.66;24.88;100894.72;4237169;28;21579;-69
2023/06/04 08:21:28;;;;;;;1.70;0.80;;;;;;;23.92;23.32;100903.41;4275852;28;25686;-67
2023/06/04 08:23:55;;;;;;;1.00;0.60;;;;;;;23.27;23.93;100894.25;4259769;28;20230;-70
2023/06/04 08:26:23;;;;;;;3.23;1.00;;;;;;;22.73;24.92;100887.28;4264436;28;21115;-68
2023/06/04 08:28:50;;;;;;;1.77;0.90;;;;;;;23.08;24.71;100893.25;4280796;28;20232;-69
2023/06/04 08:31:17;;;;;;;4.33;1.17;;;;;;;22.12;25.18;100881.00;4302859;28;20820;-70
2023/06/04 08:33:47;;;;;;;3.80;0.80;;;;;;;21.19;27.83;100882.53;4299470;28;20246;-67
2023/06/04 08:36:15;;;;;;;5.63;1.30;;;;;;;21.28;26.75;100880.44;4296154;28;22286;-68
2023/06/04 08:38:42;;;;;;;6.07;1.00;;;;;;;21.83;27.08;100881.19;4278042;28;22103;-68
2023/06/04 08:41:42;;;;;;;3.63;1.07;;;;;;;21.76;26.99;100879.47;4259401;28;20237;-68
2023/06/04 08:44:09;;;;;;;6.67;0.93;;;;;;;21.92;26.29;100873.56;4285838;28;22308;-68
2023/06/04 08:46:40;;;;;;;1.93;1.10;;;;;;;22.09;25.59;100879.47;4275574;28;21554;-71
2023/06/04 08:49:08;;;;;;;1.80;0.83;;;;;;;21.88;26.22;100876.94;4292941;28;20221;-67
2023/06/04 08:51:37;;;;;;;2.83;0.90;;;;;;;21.63;26.56;100875.66;4258088;28;22280;-68
2023/06/04 08:54:05;;;;;;;3.30;0.90;;;;;;;20.95;27.90;100875.69;4269769;28;20234;-69
2023/06/04 08:56:33;;;;;;;2.73;0.93;;;;;;;20.85;27.12;100878.78;4273455;28;22283;-67
2023/06/04 08:59:05;;;;;;;1.47;0.80;;;;;;;20.52;27.61;100880.28;4272969;28;20389;-68
2023/06/04 09:01:32;;;;;;;3.57;1.00;;;;;;;20.61;27.43;100864.50;4249528;28;20234;-66
2023/06/04 09:04:01;;;;;;;2.03;0.90;;;;;;;20.79;27.56;100869.47;4279745;28;20303;-68
2023/06/04 09:06:28;;;;;;;1.60;0.73;;;;;;;21.04;28.70;100877.19;4266359;28;20234;-67
2023/06/04 09:08:58;;;;;;;2.43;0.93;;;;;;;20.59;27.34;100878.44;4246796;28;20235;-68
2023/06/04 09:11:39;;;;;;;2.23;0.90;;;;;;;20.25;27.54;100882.88;4269913;28;22876;-71
2023/06/04 09:14:11;;;;;;;2.73;1.07;;;;;;;20.26;27.72;100869.97;4254782;28;20227;-68
2023/06/04 09:16:48;;;;;;;3.37;0.80;;;;;;;19.99;28.14;100874.41;4254093;28;20606;-68
2023/06/04 09:19:15;;;;;;;4.20;1.00;;;;;;;20.27;27.35;100879.91;4227509;28;22866;-66
2023/06/04 09:21:53;;;;;;;4.00;1.00;;;;;;;20.17;27.84;100869.28;4231052;28;20231;-68
2023/06/04 09:24:20;;;;;;;3.40;1.07;;;;;;;19.85;28.99;100878.97;4256592;28;20254;-69
2023/06/04 09:26:48;;;;;;;2.43;0.90;;;;;;;19.72;28.17;100876.91;4274219;28;20232;-66
2023/06/04 09:29:15;;;;;;;3.07;1.07;;;;;;;19.98;28.35;100859.84;4238230;28;21653;-67
2023/06/04 09:31:46;;;;;;;1.27;0.67;;;;;;;20.39;28.08;100863.72;4257162;28;20239;-69
2023/06/04 09:34:14;;;;;;;2.17;0.80;;;;;;;20.44;28.14;100866.69;4253215;28;25444;-71
2023/06/04 09:36:41;;;;;;;3.40;1.00;;;;;;;21.04;27.70;100860.66;4271471;28;20389;-68
2023/06/04 09:39:15;;;;;;;1.83;1.07;;;;;;;20.27;28.47;100857.94;4240552;28;20264;-69
2023/06/04 09:41:42;;;;;;;7.53;0.73;;;;;;;20.34;29.09;100866.22;4250835;28;25568;-71
2023/06/04 09:44:10;;;;;;;1.63;1.00;;;;;;;20.92;28.79;100851.31;4257405;28;20231;-70
2023/06/04 09:46:37;;;;;;;2.83;1.20;;;;;;;21.20;27.06;100849.28;4259612;28;22348;-69
2023/06/04 09:49:05;;;;;;;4.67;0.97;;;;;;;21.04;27.21;100857.91;4230391;28;21815;-67
2023/06/04 09:51:32;;;;;;;4.93;0.90;;;;;;;20.96;26.87;100856.19;4239279;28;21088;-75
2023/06/04 09:54:00;;;;;;;3.23;0.90;;;;;;;20.10;27.85;100854.66;4258547;28;21920;-65
2023/06/04 09:56:27;;;;;;;2.23;1.00;;;;;;;19.79;28.57;100864.94;4247468;28;20291;-66
2023/06/04 09:58:58;;;;;;;1.70;0.77;;;;;;;20.51;27.93;100855.75;4255614;28;20234;-68
2023/06/04 10:01:26;;;;;;;2.83;1.00;;;;;;;20.57;27.80;100847.56;4253702;28;21932;-67
2023/06/04 10:03:53;;;;;;;2.03;0.93;;;;;;;20.41;27.63;100848.72;4258106;28;20541;-67
2023/06/04 10:06:21;;;;;;;3.73;0.87;;;;;;;20.48;27.84;100842.41;4249075;28;20410;-65
2023/06/04 10:08:49;;;;;;;5.63;1.63;;;;;;;19.90;30.00;100840.75;4246859;28;20275;-70
2023/06/04 10:11:31;;;;;;;3.53;0.90;;;;;;;20.30;27.97;100843.78;4269248;28;20310;-66
2023/06/04 10:14:04;;;;;;;2.00;0.87;;;;;;;20.36;27.60;100842.97;4246158;28;21174;-67
2023/06/04 10:16:31;;;;;;;3.50;0.73;;;;;;;20.50;28.75;100840.28;4259642;28;20952;-70
2023/06/04 10:19:01;;;;;;;1.27;0.70;;;;;;;20.21;28.00;100831.25;4237403;28;21725;-67
2023/06/04 10:21:28;;;;;;;3.53;0.90;;;;;;;20.32;29.28;100825.19;4253496;28;20234;-68
2023/06/04 10:23:54;;;;;;;4.90;1.00;;;;;;;20.42;28.16;100835.84;4246781;28;21561;-68
2023/06/04 10:26:21;;;;;;;2.23;0.70;;;;;;;20.65;28.05;100835.50;4236939;28;20297;-67
2023/06/04 10:28:48;;;;;;;2.63;0.90;;;;;;;20.52;28.52;100838.19;4242241;28;21013;-68
2023/06/04 10:31:15;;;;;;;4.93;1.23;;;;;;;20.85;27.37;100832.88;4272704;28;20261;-66
2023/06/04 10:33:42;;;;;;;3.67;1.13;;;;;;;20.98;28.50;100831.22;4235728;28;21328;-68
2023/06/04 10:36:19;;;;;;;3.33;0.93;;;;;;;20.80;27.46;100815.28;4248670;28;20229;-67
2023/06/04 10:38:50;;;;;;;2.73;1.00;;;;;;;20.43;27.38;100821.03;4224118;28;20225;-68
2023/06/04 10:41:22;;;;;;;3.97;0.80;;;;;;;20.45;28.51;100818.91;4259586;28;20297;-71
2023/06/04 10:43:50;;;;;;;2.90;0.90;;;;;;;20.22;28.30;100825.53;4261349;28;20240;-66
2023/06/04 10:46:18;;;;;;;6.33;1.10;;;;;;;20.39;28.78;100825.22;4254412;28;21952;-65
2023/06/04 10:48:52;;;;;;;2.50;0.90;;;;;;;20.71;28.36;100820.94;4225482;28;21604;-65
2023/06/04 10:51:30;;;;;;;1.50;0.87;;;;;;;20.12;27.72;100825.06;4260466;28;20339;-70
2023/06/04 10:54:01;;;;;;;3.13;1.00;;;;;;;20.40;28.89;100821.44;4272201;28;20238;-64
2023/06/04 10:56:32;;;;;;;3.63;1.00;;;;;;;20.52;27.68;100816.19;4230535;28;20237;-67
2023/06/04 10:59:00;;;;;;;1.77;0.80;;;;;;;20.41;27.89;100821.22;4248748;28;20272;-66
2023/06/04 11:01:28;;;;;;;2.57;0.87;;;;;;;20.52;28.86;100811.53;4262096;28;20312;-68
2023/06/04 11:03:55;;;;;;;6.03;1.07;;;;;;;20.41;28.56;100814.88;4257955;28;20258;-71
2023/06/04 11:06:22;;;;;;;4.80;1.03;;;;;;;20.32;28.14;100808.69;4248047;28;20237;-65
2023/06/04 11:08:49;;;;;;;3.30;1.00;;;;;;;20.61;28.11;100809.47;4293746;28;21374;-67
2023/06/04 11:11:18;;;;;;;2.30;0.93;;;;;;;20.56;27.68;100800.97;4344590;28;22549;-68
2023/06/04 11:13:48;;;;;;;1.97;0.80;;;;;;;20.89;27.59;100808.56;4328471;28;20251;-68
2023/06/04 11:16:19;;;;;;;5.17;0.77;;;;;;;21.09;27.25;100814.13;4402014;28;21055;-65
2023/06/04 11:18:56;;;;;;;3.03;0.87;;;;;;;21.17;27.85;100811.16;4314872;28;20320;-65
2023/06/04 11:21:24;;;;;;;2.53;0.90;;;;;;;21.52;28.07;100807.41;4343519;28;25478;-65
2023/06/04 11:24:01;;;;;;;1.60;0.90;;;;;;;21.58;26.14;100819.50;4346791;28;21809;-63
2023/06/04 11:26:32;;;;;;;1.30;0.70;;;;;;;21.62;25.66;100812.53;4299381;28;20240;-64
2023/06/04 11:29:00;;;;;;;3.53;1.10;;;;;;;21.43;26.93;100812.25;4354072;28;21793;-68
2023/06/04 11:31:27;;;;;;;1.63;0.70;;;;;;;21.26;26.15;100808.22;4378319;28;21696;-65
2023/06/04 11:33:54;;;;;;;2.17;0.73;;;;;;;21.09;26.47;100808.63;4371785;28;20658;-67
2023/06/04 11:36:29;;;;;;;1.77;0.80;;;;;;;21.17;26.57;100802.06;4373440;28;20561;-66
2023/06/04 11:39:06;;;;;;;6.83;0.90;;;;;;;21.59;26.14;100812.94;4340287;28;21519;-64
2023/06/04 11:41:35;;;;;;;4.87;1.13;;;;;;;21.06;26.50;100800.75;4363128;28;20635;-65
2023/06/04 11:44:07;;;;;;;1.67;1.10;;;;;;;21.18;26.76;100804.63;4359405;28;20229;-65
2023/06/04 11:46:40;;;;;;;1.93;1.07;;;;;;;21.34;26.48;100796.97;4398716;28;21634;-63